TimeCST,TemperatureF,Dew PointF,Humidity,Sea Level PressureIn,VisibilityMPH,Wind Direction,Wind SpeedMPH,Gust SpeedMPH,PrecipitationIn,Events,Conditions,WindDirDegrees,DateUTC
12:15 AM,-11.2,-11.2,100,30.36,5.0,ESE,5.8,-,N/A,,Clear,110,2014-02-12 06:15:00
12:35 AM,-11.2,-16.6,77,30.35,4.0,ESE,5.8,-,N/A,,Clear,120,2014-02-12 06:35:00
12:55 AM,-13.0,-14.8,92,30.35,3.0,SE,4.6,-,N/A,,Clear,140,2014-02-12 06:55:00
1:15 AM,-7.6,-7.6,100,30.34,5.0,SE,5.8,-,N/A,,Clear,130,2014-02-12 07:15:00
1:35 AM,-5.8,-13.0,71,30.34,7.0,ESE,5.8,-,N/A,,Clear,120,2014-02-12 07:35:00
1:55 AM,-5.8,-5.8,100,30.33,10.0,ESE,8.1,-,N/A,,Clear,120,2014-02-12 07:55:00
2:15 AM,-5.8,-11.2,77,30.33,10.0,SE,6.9,-,N/A,,Clear,130,2014-02-12 08:15:00
2:35 AM,-7.6,-13.0,77,30.33,8.0,SE,3.5,-,N/A,,Clear,140,2014-02-12 08:35:00
2:55 AM,-5.8,-9.4,84,30.33,8.0,Calm,Calm,-,N/A,,Clear,0,2014-02-12 08:55:00
3:15 AM,-5.8,-7.6,92,30.32,9.0,ESE,3.5,-,N/A,,Clear,120,2014-02-12 09:15:00
3:35 AM,-7.6,-14.8,71,30.32,8.0,East,3.5,-,N/A,,Clear,80,2014-02-12 09:35:00
3:55 AM,-9.4,-11.2,92,30.31,7.0,East,4.6,-,N/A,,Clear,100,2014-02-12 09:55:00
4:15 AM,-11.2,-16.6,77,30.31,7.0,ESE,3.5,-,N/A,,Clear,110,2014-02-12 10:15:00
4:35 AM,-11.2,-18.4,70,30.30,6.0,East,4.6,-,N/A,,Clear,100,2014-02-12 10:35:00
4:55 AM,-9.4,-11.2,92,30.28,5.0,East,5.8,-,N/A,,Clear,100,2014-02-12 10:55:00
5:15 AM,-11.2,-16.6,77,30.28,6.0,ESE,3.5,-,N/A,,Clear,120,2014-02-12 11:15:00
5:35 AM,-11.2,-14.8,84,30.28,7.0,Calm,Calm,-,N/A,,Clear,0,2014-02-12 11:35:00
5:55 AM,-11.2,-11.2,100,30.27,6.0,Calm,Calm,-,N/A,,Clear,0,2014-02-12 11:55:00
6:15 AM,-9.4,-14.8,77,30.27,7.0,Calm,Calm,-,N/A,,Clear,0,2014-02-12 12:15:00
6:35 AM,-11.2,-14.8,84,30.26,5.0,East,3.5,-,N/A,,Clear,90,2014-02-12 12:35:00
6:55 AM,-9.4,-14.8,77,30.27,5.0,East,3.5,-,N/A,,Clear,80,2014-02-12 12:55:00
7:15 AM,-11.2,-14.8,84,30.27,5.0,Calm,Calm,-,N/A,,Clear,0,2014-02-12 13:15:00
7:35 AM,-14.8,-18.4,84,30.27,5.0,SE,6.9,-,N/A,,Clear,130,2014-02-12 13:35:00
7:55 AM,-7.6,-9.4,92,30.27,6.0,ESE,5.8,-,N/A,,Clear,120,2014-02-12 13:55:00
8:15 AM,-7.6,-9.4,92,30.27,7.0,ESE,5.8,-,N/A,,Clear,120,2014-02-12 14:15:00
8:35 AM,-5.8,-5.8,100,30.27,7.0,ESE,3.5,-,N/A,,Clear,120,2014-02-12 14:35:00
8:55 AM,-2.2,-4.0,92,30.27,8.0,Calm,Calm,-,N/A,,Clear,0,2014-02-12 14:55:00
9:15 AM,-0.4,-2.2,92,30.26,9.0,Calm,Calm,-,N/A,,Clear,0,2014-02-12 15:15:00
9:35 AM,1.4,-0.4,92,30.25,10.0,Calm,Calm,-,N/A,,Clear,0,2014-02-12 15:35:00
9:55 AM,1.4,1.4,100,30.26,10.0,Calm,Calm,-,N/A,,Clear,0,2014-02-12 15:55:00
10:15 AM,3.2,1.4,92,30.25,9.0,Calm,Calm,-,N/A,,Clear,0,2014-02-12 16:15:00
10:35 AM,5.0,3.2,92,30.25,9.0,ESE,3.5,-,N/A,,Clear,120,2014-02-12 16:35:00
10:55 AM,6.8,5.0,92,30.24,9.0,ESE,3.5,-,N/A,,Clear,110,2014-02-12 16:55:00
11:15 AM,8.6,5.0,85,30.23,10.0,Calm,Calm,-,N/A,,Clear,0,2014-02-12 17:15:00
11:35 AM,8.6,6.8,92,30.22,10.0,East,3.5,-,N/A,,Clear,80,2014-02-12 17:35:00
11:55 AM,12.2,10.4,92,30.20,10.0,Calm,Calm,-,N/A,,Clear,0,2014-02-12 17:55:00
12:15 PM,10.4,5.0,79,30.18,10.0,Calm,Calm,-,N/A,,Clear,0,2014-02-12 18:15:00
12:35 PM,12.2,8.6,85,30.16,10.0,East,5.8,-,N/A,,Clear,100,2014-02-12 18:35:00
12:55 PM,12.2,8.6,85,30.15,10.0,ENE,3.5,-,N/A,,Clear,70,2014-02-12 18:55:00
1:15 PM,12.2,8.6,85,30.13,10.0,East,5.8,-,N/A,,Clear,90,2014-02-12 19:15:00
1:35 PM,15.8,10.4,79,30.13,10.0,NE,3.5,-,N/A,,Clear,40,2014-02-12 19:35:00
1:55 PM,17.6,8.6,68,30.12,10.0,ENE,3.5,-,N/A,,Clear,60,2014-02-12 19:55:00
2:15 PM,17.6,8.6,68,30.11,10.0,ENE,3.5,-,N/A,,Clear,70,2014-02-12 20:15:00
2:35 PM,19.4,12.2,74,30.11,10.0,NE,3.5,-,N/A,,Clear,50,2014-02-12 20:35:00
2:55 PM,17.6,8.6,68,30.11,10.0,NE,3.5,-,N/A,,Clear,50,2014-02-12 20:55:00
3:15 PM,19.4,10.4,68,30.11,10.0,Calm,Calm,-,N/A,,Clear,0,2014-02-12 21:15:00
3:35 PM,19.4,10.4,68,30.10,10.0,Calm,Calm,-,N/A,,Clear,0,2014-02-12 21:35:00
3:55 PM,17.6,6.8,63,30.09,10.0,Calm,Calm,-,N/A,,Clear,0,2014-02-12 21:55:00
4:15 PM,17.6,6.8,63,30.07,10.0,East,3.5,-,N/A,,Clear,90,2014-02-12 22:15:00
4:35 PM,17.6,8.6,68,30.07,10.0,ENE,3.5,-,N/A,,Clear,60,2014-02-12 22:35:00
4:55 PM,15.8,6.8,68,30.07,10.0,East,3.5,-,N/A,,Clear,90,2014-02-12 22:55:00
5:15 PM,12.2,3.2,67,30.06,10.0,ESE,5.8,-,N/A,,Clear,110,2014-02-12 23:15:00
5:35 PM,10.4,1.4,67,30.06,9.0,ESE,4.6,-,N/A,,Clear,110,2014-02-12 23:35:00
5:55 PM,10.4,5.0,79,30.07,10.0,East,3.5,-,N/A,,Clear,100,2014-02-12 23:55:00
6:15 PM,10.4,3.2,73,30.07,10.0,East,4.6,-,N/A,,Clear,100,2014-02-13 00:15:00
6:35 PM,10.4,5.0,79,30.07,9.0,East,4.6,-,N/A,,Clear,90,2014-02-13 00:35:00
6:55 PM,8.6,1.4,73,30.07,8.0,East,5.8,-,N/A,,Clear,90,2014-02-13 00:55:00
7:15 PM,10.4,5.0,79,30.07,8.0,East,4.6,-,N/A,,Clear,90,2014-02-13 01:15:00
7:35 PM,10.4,3.2,73,30.08,7.0,NE,3.5,-,N/A,,Clear,50,2014-02-13 01:35:00
7:55 PM,10.4,3.2,73,30.08,7.0,NE,5.8,-,N/A,,Clear,40,2014-02-13 01:55:00
8:15 PM,10.4,3.2,73,30.08,6.0,NNE,5.8,-,N/A,,Clear,30,2014-02-13 02:15:00
8:35 PM,6.8,1.4,79,30.07,6.0,NE,5.8,-,N/A,,Clear,50,2014-02-13 02:35:00
8:55 PM,5.0,-0.4,78,30.06,5.0,ENE,4.6,-,N/A,,Clear,60,2014-02-13 02:55:00
9:15 PM,6.8,1.4,79,30.06,5.0,East,6.9,-,N/A,,Clear,90,2014-02-13 03:15:00
9:35 PM,6.8,1.4,79,30.05,5.0,ENE,3.5,-,N/A,,Clear,60,2014-02-13 03:35:00
9:55 PM,3.2,-2.2,78,30.04,5.0,ENE,5.8,-,N/A,,Clear,70,2014-02-13 03:55:00
10:15 PM,6.8,3.2,85,30.03,5.0,ENE,5.8,-,N/A,,Clear,70,2014-02-13 04:15:00
10:35 PM,3.2,-2.2,78,30.02,5.0,East,5.8,-,N/A,,Clear,80,2014-02-13 04:35:00
10:55 PM,1.4,-5.8,72,30.02,5.0,East,5.8,-,N/A,,Clear,90,2014-02-13 04:55:00
11:15 PM,3.2,-0.4,85,30.01,5.0,ESE,6.9,-,N/A,,Clear,110,2014-02-13 05:15:00
11:35 PM,3.2,-0.4,85,30.00,5.0,ESE,5.8,-,N/A,,Clear,110,2014-02-13 05:35:00
11:55 PM,3.2,1.4,92,30.00,5.0,East,3.5,-,N/A,,Clear,100,2014-02-13 05:55:00